sensor_id;sensor_type;location;lat;lon;timestamp;pressure;altitude;pressure_sealevel;temperature;humidity
5284;BME280;15377;48.540;9.268;2023-11-19T00:01:22;97407.28;;;9.02;100.00
5284;BME280;15377;48.540;9.268;2023-11-19T00:03:48;97418.69;;;9.10;100.00
5284;BME280;15377;48.540;9.268;2023-11-19T00:06:14;97409.09;;;8.96;100.00
5284;BME280;15377;48.540;9.268;2023-11-19T00:08:39;97423.28;;;8.95;100.00
5284;BME280;15377;48.540;9.268;2023-11-19T00:11:05;97424.38;;;8.88;100.00
5284;BME280;15377;48.540;9.268;2023-11-19T00:13:30;97418.88;;;8.88;100.00
5284;BME280;15377;48.540;9.268;2023-11-19T00:15:56;97431.38;;;8.89;100.00
5284;BME280;15377;48.540;9.268;2023-11-19T00:18:21;97422.38;;;8.89;100.00
5284;BME280;15377;48.540;9.268;2023-11-19T00:20:47;97419.81;;;8.85;100.00
5284;BME280;15377;48.540;9.268;2023-11-19T00:23:12;97412.03;;;8.84;100.00
5284;BME280;15377;48.540;9.268;2023-11-19T00:25:38;97400.59;;;8.85;100.00
5284;BME280;15377;48.540;9.268;2023-11-19T00:28:04;97397.66;;;8.89;100.00
5284;BME280;15377;48.540;9.268;2023-11-19T00:30:29;97392.66;;;8.87;100.00
5284;BME280;15377;48.540;9.268;2023-11-19T00:32:56;97385.94;;;8.88;100.00
5284;BME280;15377;48.540;9.268;2023-11-19T00:35:21;97388.41;;;8.86;100.00
5284;BME280;15377;48.540;9.268;2023-11-19T00:37:47;97397.50;;;8.92;100.00
5284;BME280;15377;48.540;9.268;2023-11-19T00:40:13;97392.19;;;8.89;100.00
5284;BME280;15377;48.540;9.268;2023-11-19T00:42:40;97395.84;;;8.95;100.00
5284;BME280;15377;48.540;9.268;2023-11-19T00:45:06;97397.97;;;9.00;100.00
5284;BME280;15377;48.540;9.268;2023-11-19T00:47:34;97388.66;;;8.97;100.00
5284;BME280;15377;48.540;9.268;2023-11-19T00:50:00;97390.47;;;9.09;100.00
5284;BME280;15377;48.540;9.268;2023-11-19T00:52:26;97378.84;;;9.14;100.00
5284;BME280;15377;48.540;9.268;2023-11-19T00:54:51;97378.81;;;9.23;100.00
5284;BME280;15377;48.540;9.268;2023-11-19T00:57:16;97379.44;;;9.27;100.00
5284;BME280;15377;48.540;9.268;2023-11-19T00:59:43;97369.03;;;9.31;100.00
5284;BME280;15377;48.540;9.268;2023-11-19T01:02:08;97365.72;;;9.27;100.00
5284;BME280;15377;48.540;9.268;2023-11-19T01:04:34;97367.22;;;9.28;100.00
5284;BME280;15377;48.540;9.268;2023-11-19T01:07:02;97356.53;;;9.30;100.00
5284;BME280;15377;48.540;9.268;2023-11-19T01:09:29;97353.91;;;9.36;100.00
5284;BME280;15377;48.540;9.268;2023-11-19T01:11:57;97349.19;;;9.36;100.00
5284;BME280;15377;48.540;9.268;2023-11-19T01:14:22;97353.00;;;9.39;100.00
5284;BME280;15377;48.540;9.268;2023-11-19T01:16:48;97345.53;;;9.30;100.00
5284;BME280;15377;48.540;9.268;2023-11-19T01:19:13;97353.00;;;9.39;100.00
5284;BME280;15377;48.540;9.268;2023-11-19T01:21:39;97354.34;;;9.43;100.00
5284;BME280;15377;48.540;9.268;2023-11-19T01:24:04;97355.09;;;9.44;100.00
5284;BME280;15377;48.540;9.268;2023-11-19T01:26:34;97356.47;;;9.48;100.00
5284;BME280;15377;48.540;9.268;2023-11-19T01:29:00;97338.81;;;9.40;100.00
5284;BME280;15377;48.540;9.268;2023-11-19T01:31:26;97349.56;;;9.53;100.00
5284;BME280;15377;48.540;9.268;2023-11-19T01:33:52;97341.16;;;9.56;100.00
5284;BME280;15377;48.540;9.268;2023-11-19T01:36:17;97323.75;;;9.59;100.00
5284;BME280;15377;48.540;9.268;2023-11-19T01:38:42;97323.09;;;9.64;100.00
5284;BME280;15377;48.540;9.268;2023-11-19T01:41:08;97309.53;;;9.61;100.00
5284;BME280;15377;48.540;9.268;2023-11-19T01:43:35;97300.53;;;9.60;100.00
5284;BME280;15377;48.540;9.268;2023-11-19T01:46:02;97303.50;;;9.71;100.00
5284;BME280;15377;48.540;9.268;2023-11-19T01:48:29;97295.16;;;9.66;100.00
5284;BME280;15377;48.540;9.268;2023-11-19T01:50:55;97300.75;;;9.71;100.00
5284;BME280;15377;48.540;9.268;2023-11-19T01:53:22;97300.28;;;9.73;100.00
5284;BME280;15377;48.540;9.268;2023-11-19T01:55:48;97301.63;;;9.77;100.00
5284;BME280;15377;48.540;9.268;2023-11-19T01:58:14;97291.00;;;9.70;100.00
5284;BME280;15377;48.540;9.268;2023-11-19T02:00:40;97297.66;;;9.78;100.00
5284;BME280;15377;48.540;9.268;2023-11-19T02:03:06;97301.56;;;9.86;100.00
5284;BME280;15377;48.540;9.268;2023-11-19T02:05:35;97310.69;;;9.92;100.00
5284;BME280;15377;48.540;9.268;2023-11-19T02:08:01;97302.63;;;9.89;100.00
5284;BME280;15377;48.540;9.268;2023-11-19T02:10:26;97297.13;;;9.89;100.00
5284;BME280;15377;48.540;9.268;2023-11-19T02:12:52;97309.47;;;9.93;100.00
5284;BME280;15377;48.540;9.268;2023-11-19T02:15:18;97293.28;;;9.95;100.00
5284;BME280;15377;48.540;9.268;2023-11-19T02:17:50;97294.31;;;9.98;100.00
5284;BME280;15377;48.540;9.268;2023-11-19T02:20:15;97288.81;;;9.98;100.00
5284;BME280;15377;48.540;9.268;2023-11-19T02:22:41;97291.88;;;10.00;100.00
5284;BME280;15377;48.540;9.268;2023-11-19T02:25:07;97298.72;;;10.04;100.00
5284;BME280;15377;48.540;9.268;2023-11-19T02:30:12;97293.78;;;10.08;100.00
5284;BME280;15377;48.540;9.268;2023-11-19T02:32:41;97283.75;;;10.05;100.00
5284;BME280;15377;48.540;9.268;2023-11-19T02:35:06;97290.13;;;10.11;100.00
5284;BME280;15377;48.540;9.268;2023-11-19T02:37:33;97292.97;;;10.17;100.00
5284;BME280;15377;48.540;9.268;2023-11-19T02:39:59;97284.91;;;10.13;100.00
5284;BME280;15377;48.540;9.268;2023-11-19T02:42:34;97278.91;;;10.15;100.00
5284;BME280;15377;48.540;9.268;2023-11-19T02:45:00;97280.56;;;10.21;100.00
5284;BME280;15377;48.540;9.268;2023-11-19T02:47:26;97276.94;;;10.15;100.00
5284;BME280;15377;48.540;9.268;2023-11-19T02:49:55;97280.84;;;10.23;100.00
5284;BME280;15377;48.540;9.268;2023-11-19T02:52:20;97285.09;;;10.24;100.00
5284;BME280;15377;48.540;9.268;2023-11-19T02:54:46;97273.03;;;10.22;100.00
5284;BME280;15377;48.540;9.268;2023-11-19T02:57:11;97271.72;;;10.17;100.00
5284;BME280;15377;48.540;9.268;2023-11-19T02:59:39;97288.44;;;10.28;100.00
5284;BME280;15377;48.540;9.268;2023-11-19T03:02:07;97279.59;;;10.24;100.00
5284;BME280;15377;48.540;9.268;2023-11-19T03:04:37;97291.00;;;10.32;100.00
5284;BME280;15377;48.540;9.268;2023-11-19T03:07:05;97286.63;;;10.25;100.00
5284;BME280;15377;48.540;9.268;2023-11-19T03:09:30;97287.03;;;10.33;100.00
5284;BME280;15377;48.540;9.268;2023-11-19T03:11:56;97273.19;;;10.27;100.00
5284;BME280;15377;48.540;9.268;2023-11-19T03:14:21;97290.81;;;10.35;100.00
5284;BME280;15377;48.540;9.268;2023-11-19T03:16:48;97295.19;;;10.42;100.00
5284;BME280;15377;48.540;9.268;2023-11-19T03:19:13;97292.34;;;10.36;100.00
5284;BME280;15377;48.540;9.268;2023-11-19T03:21:38;97296.31;;;10.35;100.00
5284;BME280;15377;48.540;9.268;2023-11-19T03:24:04;97298.69;;;10.42;100.00
5284;BME280;15377;48.540;9.268;2023-11-19T03:26:29;97304.50;;;10.44;100.00
5284;BME280;15377;48.540;9.268;2023-11-19T03:28:55;97305.03;;;10.48;100.00
5284;BME280;15377;48.540;9.268;2023-11-19T03:31:22;97299.53;;;10.48;100.00
5284;BME280;15377;48.540;9.268;2023-11-19T03:33:48;97304.13;;;10.51;100.00
5284;BME280;15377;48.540;9.268;2023-11-19T03:36:13;97286.06;;;10.50;100.00
5284;BME280;15377;48.540;9.268;2023-11-19T03:38:39;97295.09;;;10.51;100.00
5284;BME280;15377;48.540;9.268;2023-11-19T03:41:11;97311.13;;;10.52;100.00
5284;BME280;15377;48.540;9.268;2023-11-19T03:43:37;97282.13;;;10.51;100.00
5284;BME280;15377;48.540;9.268;2023-11-19T03:46:03;97288.94;;;10.56;100.00
5284;BME280;15377;48.540;9.268;2023-11-19T03:48:30;97299.94;;;10.56;100.00
5284;BME280;15377;48.540;9.268;2023-11-19T03:50:56;97292.75;;;10.58;100.00
5284;BME280;15377;48.540;9.268;2023-11-19T03:53:21;97276.00;;;10.62;100.00
5284;BME280;15377;48.540;9.268;2023-11-19T03:55:46;97285.69;;;10.57;100.00
5284;BME280;15377;48.540;9.268;2023-11-19T03:58:12;97286.94;;;10.56;100.00
5284;BME280;15377;48.540;9.268;2023-11-19T04:00:37;97292.34;;;10.65;100.00
5284;BME280;15377;48.540;9.268;2023-11-19T04:03:02;97293.09;;;10.66;100.00
5284;BME280;15377;48.540;9.268;2023-11-19T04:05:28;97290.81;;;10.64;100.00
5284;BME280;15377;48.540;9.268;2023-11-19T04:07:53;97291.59;;;10.65;100.00
5284;BME280;15377;48.540;9.268;2023-11-19T04:10:18;97285.69;;;10.57;100.00
5284;BME280;15377;48.540;9.268;2023-11-19T04:12:45;97293.56;;;10.64;100.00
5284;BME280;15377;48.540;9.268;2023-11-19T04:15:11;97299.00;;;10.59;100.00
5284;BME280;15377;48.540;9.268;2023-11-19T04:17:36;97288.16;;;10.70;100.00
5284;BME280;15377;48.540;9.268;2023-11-19T04:20:02;97280.41;;;10.68;100.00
5284;BME280;15377;48.540;9.268;2023-11-19T04:22:29;97273.94;;;10.71;100.00
5284;BME280;15377;48.540;9.268;2023-11-19T04:24:54;97282.19;;;10.71;100.00
5284;BME280;15377;48.540;9.268;2023-11-19T04:27:20;97287.41;;;10.69;100.00
5284;BME280;15377;48.540;9.268;2023-11-19T04:29:45;97285.91;;;10.68;100.00
5284;BME280;15377;48.540;9.268;2023-11-19T04:32:12;97301.72;;;10.73;100.00
5284;BME280;15377;48.540;9.268;2023-11-19T04:34:37;97288.28;;;10.75;100.00
5284;BME280;15377;48.540;9.268;2023-11-19T04:37:03;97286.47;;;10.72;100.00
5284;BME280;15377;48.540;9.268;2023-11-19T04:39:29;97291.78;;;10.76;100.00
5284;BME280;15377;48.540;9.268;2023-11-19T04:41:55;97307.63;;;10.81;100.00
5284;BME280;15377;48.540;9.268;2023-11-19T04:44:20;97294.41;;;10.84;100.00
5284;BME280;15377;48.540;9.268;2023-11-19T04:46:46;97321.75;;;10.88;100.00
5284;BME280;15377;48.540;9.268;2023-11-19T04:49:12;97308.09;;;10.79;100.00
5284;BME280;15377;48.540;9.268;2023-11-19T04:51:42;97315.97;;;10.86;100.00
5284;BME280;15377;48.540;9.268;2023-11-19T04:54:08;97318.72;;;10.86;100.00
5284;BME280;15377;48.540;9.268;2023-11-19T04:56:34;97311.72;;;10.85;100.00
5284;BME280;15377;48.540;9.268;2023-11-19T04:59:01;97310.56;;;10.91;100.00
5284;BME280;15377;48.540;9.268;2023-11-19T05:01:27;97312.25;;;10.89;100.00
5284;BME280;15377;48.540;9.268;2023-11-19T05:03:52;97299.06;;;10.93;100.00
5284;BME280;15377;48.540;9.268;2023-11-19T05:06:18;97308.84;;;10.94;100.00
5284;BME280;15377;48.540;9.268;2023-11-19T05:08:44;97317.03;;;10.88;100.00
5284;BME280;15377;48.540;9.268;2023-11-19T05:11:09;97309.22;;;10.87;100.00
5284;BME280;15377;48.540;9.268;2023-11-19T05:13:37;97314.16;;;10.97;100.00
5284;BME280;15377;48.540;9.268;2023-11-19T05:16:02;97315.88;;;10.95;100.00
5284;BME280;15377;48.540;9.268;2023-11-19T05:18:27;97305.81;;;10.92;100.00
5284;BME280;15377;48.540;9.268;2023-11-19T05:20:53;97312.47;;;11.00;100.00
5284;BME280;15377;48.540;9.268;2023-11-19T05:23:18;97288.53;;;10.91;100.00
5284;BME280;15377;48.540;9.268;2023-11-19T05:25:43;97302.78;;;11.04;100.00
5284;BME280;15377;48.540;9.268;2023-11-19T05:28:11;97308.75;;;11.17;100.00
5284;BME280;15377;48.540;9.268;2023-11-19T05:30:36;97300.47;;;11.17;100.00
5284;BME280;15377;48.540;9.268;2023-11-19T05:33:01;97291.72;;;11.19;100.00
5284;BME280;15377;48.540;9.268;2023-11-19T05:35:27;97295.16;;;11.14;100.00
5284;BME280;15377;48.540;9.268;2023-11-19T05:37:52;97301.50;;;11.20;100.00
5284;BME280;15377;48.540;9.268;2023-11-19T05:40:18;97306.34;;;11.25;100.00
5284;BME280;15377;48.540;9.268;2023-11-19T05:42:45;97318.22;;;11.31;100.00
5284;BME280;15377;48.540;9.268;2023-11-19T05:45:11;97301.78;;;11.22;100.00
5284;BME280;15377;48.540;9.268;2023-11-19T05:47:37;97311.47;;;11.32;100.00
5284;BME280;15377;48.540;9.268;2023-11-19T05:50:02;97311.72;;;11.34;100.00
5284;BME280;15377;48.540;9.268;2023-11-19T05:52:28;97299.78;;;11.22;100.00
5284;BME280;15377;48.540;9.268;2023-11-19T05:54:58;97317.94;;;11.29;100.00
5284;BME280;15377;48.540;9.268;2023-11-19T05:57:24;97306.63;;;11.27;100.00
5284;BME280;15377;48.540;9.268;2023-11-19T05:59:50;97314.28;;;11.37;100.00
5284;BME280;15377;48.540;9.268;2023-11-19T06:02:16;97309.94;;;11.31;100.00
5284;BME280;15377;48.540;9.268;2023-11-19T06:04:41;97303.47;;;11.34;100.00
5284;BME280;15377;48.540;9.268;2023-11-19T06:07:09;97306.28;;;11.39;100.00
5284;BME280;15377;48.540;9.268;2023-11-19T06:09:34;97308.22;;;11.33;100.00
5284;BME280;15377;48.540;9.268;2023-11-19T06:12:00;97315.81;;;11.38;100.00
5284;BME280;15377;48.540;9.268;2023-11-19T06:14:27;97325.09;;;11.41;100.00
5284;BME280;15377;48.540;9.268;2023-11-19T06:16:52;97316.19;;;11.46;100.00
5284;BME280;15377;48.540;9.268;2023-11-19T06:19:18;97300.78;;;11.39;100.00
5284;BME280;15377;48.540;9.268;2023-11-19T06:21:43;97289.22;;;11.35;100.00
5284;BME280;15377;48.540;9.268;2023-11-19T06:24:09;97320.31;;;11.56;100.00
5284;BME280;15377;48.540;9.268;2023-11-19T06:26:34;97319.38;;;11.59;100.00
5284;BME280;15377;48.540;9.268;2023-11-19T06:29:00;97324.69;;;11.62;100.00
5284;BME280;15377;48.540;9.268;2023-11-19T06:31:25;97317.47;;;11.65;100.00
5284;BME280;15377;48.540;9.268;2023-11-19T06:33:51;97330.28;;;11.68;100.00
5284;BME280;15377;48.540;9.268;2023-11-19T06:36:16;97326.97;;;11.64;100.00
5284;BME280;15377;48.540;9.268;2023-11-19T06:38:42;97330.41;;;11.59;100.00
5284;BME280;15377;48.540;9.268;2023-11-19T06:41:08;97330.19;;;11.62;100.00
5284;BME280;15377;48.540;9.268;2023-11-19T06:43:36;97330.97;;;11.63;100.00
5284;BME280;15377;48.540;9.268;2023-11-19T06:46:02;97334.00;;;11.65;100.00
5284;BME280;15377;48.540;9.268;2023-11-19T06:48:30;97334.47;;;11.63;100.00
5284;BME280;15377;48.540;9.268;2023-11-19T06:50:57;97343.31;;;11.67;100.00
5284;BME280;15377;48.540;9.268;2023-11-19T06:53:22;97336.56;;;11.68;100.00
5284;BME280;15377;48.540;9.268;2023-11-19T06:55:47;97336.09;;;11.70;100.00
5284;BME280;15377;48.540;9.268;2023-11-19T06:58:13;97350.34;;;11.68;100.00
5284;BME280;15377;48.540;9.268;2023-11-19T07:00:38;97358.69;;;11.74;100.00
5284;BME280;15377;48.540;9.268;2023-11-19T07:03:03;97353.75;;;11.78;100.00
5284;BME280;15377;48.540;9.268;2023-11-19T07:05:31;97340.22;;;11.80;100.00
5284;BME280;15377;48.540;9.268;2023-11-19T07:07:56;97334.91;;;11.76;100.00
5284;BME280;15377;48.540;9.268;2023-11-19T07:10:21;97335.47;;;11.80;100.00
5284;BME280;15377;48.540;9.268;2023-11-19T07:12:47;97345.53;;;11.83;100.00
5284;BME280;15377;48.540;9.268;2023-11-19T07:15:15;97345.75;;;11.80;100.00
5284;BME280;15377;48.540;9.268;2023-11-19T07:17:42;97348.56;;;11.85;100.00
5284;BME280;15377;48.540;9.268;2023-11-19T07:20:10;97334.50;;;11.83;100.00
5284;BME280;15377;48.540;9.268;2023-11-19T07:22:38;97351.69;;;11.93;100.00
5284;BME280;15377;48.540;9.268;2023-11-19T07:25:04;97337.91;;;11.93;100.00
5284;BME280;15377;48.540;9.268;2023-11-19T07:27:29;97334.66;;;11.94;100.00
5284;BME280;15377;48.540;9.268;2023-11-19T07:29:54;97348.53;;;12.00;100.00
5284;BME280;15377;48.540;9.268;2023-11-19T07:32:20;97359.56;;;12.00;100.00
5284;BME280;15377;48.540;9.268;2023-11-19T07:34:45;97344.66;;;11.92;100.00
5284;BME280;15377;48.540;9.268;2023-11-19T07:37:10;97370.09;;;12.01;100.00
5284;BME280;15377;48.540;9.268;2023-11-19T07:39:36;97373.41;;;12.05;100.00
5284;BME280;15377;48.540;9.268;2023-11-19T07:42:03;97367.91;;;12.05;100.00
5284;BME280;15377;48.540;9.268;2023-11-19T07:44:28;97369.88;;;12.05;100.00
5284;BME280;15377;48.540;9.268;2023-11-19T07:46:54;97368.09;;;12.02;100.00
5284;BME280;15377;48.540;9.268;2023-11-19T07:49:19;97351.56;;;12.02;100.00
5284;BME280;15377;48.540;9.268;2023-11-19T07:51:45;97352.09;;;12.06;100.00
5284;BME280;15377;48.540;9.268;2023-11-19T07:54:10;97367.28;;;12.16;100.00
5284;BME280;15377;48.540;9.268;2023-11-19T07:56:35;97376.38;;;12.22;100.00
5284;BME280;15377;48.540;9.268;2023-11-19T07:59:08;97369.13;;;12.24;100.00
5284;BME280;15377;48.540;9.268;2023-11-19T08:01:33;97370.44;;;12.29;100.00
5284;BME280;15377;48.540;9.268;2023-11-19T08:03:58;97377.47;;;12.30;100.00
5284;BME280;15377;48.540;9.268;2023-11-19T08:06:24;97375.28;;;12.34;100.00
5284;BME280;15377;48.540;9.268;2023-11-19T08:08:49;97367.94;;;12.31;100.00
5284;BME280;15377;48.540;9.268;2023-11-19T08:11:15;97377.25;;;12.33;100.00
5284;BME280;15377;48.540;9.268;2023-11-19T08:13:40;97377.56;;;12.35;100.00
5284;BME280;15377;48.540;9.268;2023-11-19T08:16:06;97367.00;;;12.34;100.00
5284;BME280;15377;48.540;9.268;2023-11-19T08:18:31;97352.63;;;12.30;100.00
5284;BME280;15377;48.540;9.268;2023-11-19T08:20:57;97358.84;;;12.45;100.00
5284;BME280;15377;48.540;9.268;2023-11-19T08:23:24;97355.25;;;12.39;100.00
5284;BME280;15377;48.540;9.268;2023-11-19T08:25:51;97364.91;;;12.49;100.00
5284;BME280;15377;48.540;9.268;2023-11-19T08:28:17;97355.38;;;12.50;100.00
5284;BME280;15377;48.540;9.268;2023-11-19T08:30:42;97352.16;;;12.51;100.00
5284;BME280;15377;48.540;9.268;2023-11-19T08:33:09;97360.22;;;12.55;100.00
5284;BME280;15377;48.540;9.268;2023-11-19T08:35:34;97361.19;;;12.52;100.00
5284;BME280;15377;48.540;9.268;2023-11-19T08:38:00;97334.00;;;12.45;100.00
5284;BME280;15377;48.540;9.268;2023-11-19T08:40:25;97337.75;;;12.42;100.00
5284;BME280;15377;48.540;9.268;2023-11-19T08:42:55;97359.34;;;12.69;100.00
5284;BME280;15377;48.540;9.268;2023-11-19T08:45:21;97361.00;;;12.81;100.00
5284;BME280;15377;48.540;9.268;2023-11-19T08:47:46;97366.13;;;12.93;100.00
5284;BME280;15377;48.540;9.268;2023-11-19T08:50:12;97364.25;;;13.05;100.00
5284;BME280;15377;48.540;9.268;2023-11-19T08:52:37;97374.59;;;13.10;100.00
5284;BME280;15377;48.540;9.268;2023-11-19T08:55:04;97366.84;;;13.14;100.00
5284;BME280;15377;48.540;9.268;2023-11-19T08:57:31;97363.38;;;13.19;100.00
5284;BME280;15377;48.540;9.268;2023-11-19T08:59:56;97363.66;;;13.21;100.00
5284;BME280;15377;48.540;9.268;2023-11-19T09:02:21;97375.16;;;13.45;100.00
5284;BME280;15377;48.540;9.268;2023-11-19T09:04:50;97374.97;;;13.54;100.00
5284;BME280;15377;48.540;9.268;2023-11-19T09:07:16;97375.50;;;13.58;100.00
5284;BME280;15377;48.540;9.268;2023-11-19T09:09:41;97352.31;;;13.50;100.00
5284;BME280;15377;48.540;9.268;2023-11-19T09:12:06;97369.50;;;13.65;100.00
5284;BME280;15377;48.540;9.268;2023-11-19T09:14:35;97380.16;;;13.77;100.00
5284;BME280;15377;48.540;9.268;2023-11-19T09:17:00;97379.19;;;13.86;100.00
5284;BME280;15377;48.540;9.268;2023-11-19T09:19:26;97375.97;;;13.93;100.00
5284;BME280;15377;48.540;9.268;2023-11-19T09:21:52;97373.00;;;14.02;100.00
5284;BME280;15377;48.540;9.268;2023-11-19T09:24:18;97381.84;;;14.11;100.00
5284;BME280;15377;48.540;9.268;2023-11-19T09:26:43;97385.66;;;14.14;100.00
5284;BME280;15377;48.540;9.268;2023-11-19T09:29:09;97384.13;;;14.13;100.00
5284;BME280;15377;48.540;9.268;2023-11-19T09:31:34;97399.75;;;14.16;100.00
5284;BME280;15377;48.540;9.268;2023-11-19T09:34:00;97390.19;;;14.17;100.00
5284;BME280;15377;48.540;9.268;2023-11-19T09:36:25;97391.72;;;14.18;100.00
5284;BME280;15377;48.540;9.268;2023-11-19T09:38:51;97382.13;;;14.13;100.00
5284;BME280;15377;48.540;9.268;2023-11-19T09:41:16;97405.56;;;14.18;100.00
5284;BME280;15377;48.540;9.268;2023-11-19T09:43:44;97407.78;;;14.14;100.00
5284;BME280;15377;48.540;9.268;2023-11-19T09:46:10;97409.09;;;14.18;100.00
5284;BME280;15377;48.540;9.268;2023-11-19T09:48:38;97402.78;;;14.18;100.00
5284;BME280;15377;48.540;9.268;2023-11-19T09:51:07;97373.47;;;13.95;100.00
5284;BME280;15377;48.540;9.268;2023-11-19T09:53:34;97401.25;;;14.17;100.00
5284;BME280;15377;48.540;9.268;2023-11-19T09:56:01;97405.03;;;14.14;100.00
5284;BME280;15377;48.540;9.268;2023-11-19T09:58:29;97407.13;;;14.24;100.00
5284;BME280;15377;48.540;9.268;2023-11-19T10:00:54;97394.34;;;14.38;100.00
5284;BME280;15377;48.540;9.268;2023-11-19T10:03:20;97390.91;;;14.59;100.00
5284;BME280;15377;48.540;9.268;2023-11-19T10:05:47;97384.88;;;14.61;100.00
5284;BME280;15377;48.540;9.268;2023-11-19T10:08:12;97376.28;;;14.59;100.00
5284;BME280;15377;48.540;9.268;2023-11-19T10:10:39;97386.09;;;14.54;100.00
5284;BME280;15377;48.540;9.268;2023-11-19T10:13:04;97383.56;;;14.51;100.00
5284;BME280;15377;48.540;9.268;2023-11-19T10:15:35;97380.28;;;14.47;100.00
5284;BME280;15377;48.540;9.268;2023-11-19T10:18:00;97378.31;;;14.64;100.00
5284;BME280;15377;48.540;9.268;2023-11-19T10:20:26;97375.88;;;14.82;100.00
5284;BME280;15377;48.540;9.268;2023-11-19T10:22:55;97378.41;;;14.96;100.00
5284;BME280;15377;48.540;9.268;2023-11-19T10:25:25;97349.22;;;15.06;100.00
5284;BME280;15377;48.540;9.268;2023-11-19T10:27:52;97387.31;;;15.33;100.00
5284;BME280;15377;48.540;9.268;2023-11-19T10:30:21;97380.75;;;15.47;100.00
5284;BME280;15377;48.540;9.268;2023-11-19T10:33:09;97372.44;;;15.53;100.00
5284;BME280;15377;48.540;9.268;2023-11-19T10:38:17;97378.22;;;15.44;100.00
5284;BME280;15377;48.540;9.268;2023-11-19T10:40:42;97366.59;;;15.18;100.00
5284;BME280;15377;48.540;9.268;2023-11-19T10:43:08;97377.44;;;15.21;100.00
5284;BME280;15377;48.540;9.268;2023-11-19T10:45:37;97373.91;;;15.26;100.00
5284;BME280;15377;48.540;9.268;2023-11-19T10:48:04;97366.34;;;15.21;100.00
5284;BME280;15377;48.540;9.268;2023-11-19T10:50:37;97358.59;;;15.42;100.00
5284;BME280;15377;48.540;9.268;2023-11-19T10:53:03;97355.53;;;15.34;100.00
5284;BME280;15377;48.540;9.268;2023-11-19T10:55:38;97360.03;;;15.26;100.00
5284;BME280;15377;48.540;9.268;2023-11-19T10:58:10;97366.59;;;15.29;100.00
5284;BME280;15377;48.540;9.268;2023-11-19T11:03:20;97337.34;;;15.66;100.00
5284;BME280;15377;48.540;9.268;2023-11-19T11:05:49;97350.19;;;15.80;100.00
5284;BME280;15377;48.540;9.268;2023-11-19T11:08:16;97337.63;;;15.74;100.00
5284;BME280;15377;48.540;9.268;2023-11-19T11:11:00;97327.00;;;15.61;100.00
5284;BME280;15377;48.540;9.268;2023-11-19T11:13:26;97353.00;;;15.75;100.00
5284;BME280;15377;48.540;9.268;2023-11-19T11:15:56;97341.13;;;15.85;100.00
5284;BME280;15377;48.540;9.268;2023-11-19T11:18:25;97338.59;;;15.76;100.00
5284;BME280;15377;48.540;9.268;2023-11-19T11:21:05;97327.53;;;15.65;100.00
5284;BME280;15377;48.540;9.268;2023-11-19T11:26:41;97341.59;;;15.89;100.00
5284;BME280;15377;48.540;9.268;2023-11-19T11:29:20;97338.06;;;15.94;100.00
5284;BME280;15377;48.540;9.268;2023-11-19T11:32:04;97342.03;;;16.15;100.00
5284;BME280;15377;48.540;9.268;2023-11-19T11:37:47;97338.63;;;16.50;100.00
5284;BME280;15377;48.540;9.268;2023-11-19T11:40:15;97340.44;;;16.36;100.00
5284;BME280;15377;48.540;9.268;2023-11-19T11:42:41;97349.00;;;16.49;100.00
5284;BME280;15377;48.540;9.268;2023-11-19T11:45:11;97344.41;;;16.57;100.00
5284;BME280;15377;48.540;9.268;2023-11-19T11:50:17;97346.38;;;16.62;100.00
5284;BME280;15377;48.540;9.268;2023-11-19T11:57:49;97339.81;;;16.65;100.00
5284;BME280;15377;48.540;9.268;2023-11-19T12:02:56;97322.22;;;16.46;100.00
5284;BME280;15377;48.540;9.268;2023-11-19T12:05:22;97324.00;;;16.49;100.00
5284;BME280;15377;48.540;9.268;2023-11-19T12:07:55;97347.69;;;16.56;100.00
5284;BME280;15377;48.540;9.268;2023-11-19T12:10:21;97340.66;;;16.49;100.00
5284;BME280;15377;48.540;9.268;2023-11-19T12:12:47;97315.50;;;16.25;100.00
5284;BME280;15377;48.540;9.268;2023-11-19T12:15:12;97333.66;;;16.26;100.00
5284;BME280;15377;48.540;9.268;2023-11-19T12:17:47;97323.66;;;16.07;100.00
5284;BME280;15377;48.540;9.268;2023-11-19T12:20:19;97320.16;;;15.90;100.00
5284;BME280;15377;48.540;9.268;2023-11-19T12:22:46;97328.13;;;16.15;100.00
5284;BME280;15377;48.540;9.268;2023-11-19T12:25:13;97327.13;;;16.18;100.00
5284;BME280;15377;48.540;9.268;2023-11-19T12:27:49;97315.56;;;16.03;100.00
5284;BME280;15377;48.540;9.268;2023-11-19T12:30:32;97314.31;;;16.04;100.00
5284;BME280;15377;48.540;9.268;2023-11-19T12:32:58;97312.03;;;16.03;100.00
5284;BME280;15377;48.540;9.268;2023-11-19T12:35:24;97302.94;;;16.08;100.00
5284;BME280;15377;48.540;9.268;2023-11-19T12:37:50;97317.75;;;16.32;100.00
5284;BME280;15377;48.540;9.268;2023-11-19T12:40:24;97311.66;;;16.34;100.00
5284;BME280;15377;48.540;9.268;2023-11-19T12:42:51;97321.03;;;16.31;100.00
5284;BME280;15377;48.540;9.268;2023-11-19T12:45:17;97303.41;;;16.17;100.00
5284;BME280;15377;48.540;9.268;2023-11-19T12:47:43;97312.72;;;16.25;100.00
5284;BME280;15377;48.540;9.268;2023-11-19T12:50:10;97307.66;;;16.24;100.00
5284;BME280;15377;48.540;9.268;2023-11-19T12:52:36;97317.97;;;16.40;100.00
5284;BME280;15377;48.540;9.268;2023-11-19T12:55:03;97311.63;;;16.50;100.00
5284;BME280;15377;48.540;9.268;2023-11-19T12:57:41;97291.63;;;16.57;100.00
5284;BME280;15377;48.540;9.268;2023-11-19T13:00:18;97301.75;;;16.55;100.00
5284;BME280;15377;48.540;9.268;2023-11-19T13:02:51;97283.84;;;16.50;100.00
5284;BME280;15377;48.540;9.268;2023-11-19T13:08:06;97281.09;;;16.34;100.00
5284;BME280;15377;48.540;9.268;2023-11-19T13:10:34;97279.91;;;16.24;100.00
5284;BME280;15377;48.540;9.268;2023-11-19T13:13:15;97273.88;;;16.14;100.00
5284;BME280;15377;48.540;9.268;2023-11-19T13:15:40;97275.88;;;16.19;100.00
5284;BME280;15377;48.540;9.268;2023-11-19T13:18:05;97281.38;;;16.30;100.00
5284;BME280;15377;48.540;9.268;2023-11-19T13:20:32;97254.47;;;16.09;100.00
5284;BME280;15377;48.540;9.268;2023-11-19T13:22:59;97263.09;;;16.00;100.00
5284;BME280;15377;48.540;9.268;2023-11-19T13:25:25;97254.31;;;15.90;100.00
5284;BME280;15377;48.540;9.268;2023-11-19T13:27:51;97275.72;;;16.01;100.00